Time;durP1;ratioP1;P1;durP2;ratioP2;P2;SDS_P1;SDS_P2;PMS_P1;PMS_P2;Temp;Humidity;BMP_temperature;BMP_pressure;BME280_temperature;BME280_humidity;BME280_pressure;Samples;Min_cycle;Max_cycle;Signal;HPM_P1;HPM_P2
2024/01/28 00:00:42;;;;;;;60.10;25.73;;;;;;;-2.32;64.06;100843.88;6278326;22;20007;-66
2024/01/28 00:03:08;;;;;;;56.85;24.45;;;;;;;-2.56;64.47;100800.44;6277147;22;19999;-66
2024/01/28 00:05:34;;;;;;;51.67;24.45;;;;;;;-2.38;64.19;100845.72;6278377;22;20297;-70
2024/01/28 00:08:00;;;;;;;54.40;23.92;;;;;;;-2.48;64.17;100840.56;6278312;22;20007;-66
2024/01/28 00:10:25;;;;;;;55.75;25.00;;;;;;;-2.70;64.23;100802.31;6277753;22;20012;-65
2024/01/28 00:12:51;;;;;;;53.45;24.58;;;;;;;-2.45;64.52;100851.00;6278142;22;20004;-67
2024/01/28 00:15:17;;;;;;;55.97;25.70;;;;;;;-2.45;64.66;100845.75;6278149;22;20090;-67
2024/01/28 00:17:42;;;;;;;60.88;26.45;;;;;;;-2.45;65.02;100858.03;6276711;22;20403;-67
2024/01/28 00:20:09;;;;;;;69.07;27.70;;;;;;;-2.45;65.04;100843.13;6277945;22;20412;-64
2024/01/28 00:22:34;;;;;;;62.78;26.23;;;;;;;-2.54;64.63;100830.13;6277592;22;20424;-66
2024/01/28 00:25:00;;;;;;;57.63;26.52;;;;;;;-2.46;64.52;100851.88;6276844;22;20004;-68
2024/01/28 00:27:25;;;;;;;56.78;27.05;;;;;;;-2.55;65.27;100838.00;6277792;22;20087;-67
2024/01/28 00:29:51;;;;;;;57.95;24.70;;;;;;;-2.53;65.31;100858.09;6277622;22;20103;-67
2024/01/28 00:32:17;;;;;;;51.35;24.33;;;;;;;-2.54;65.06;100853.72;6277790;22;20022;-67
2024/01/28 00:34:43;;;;;;;59.97;24.77;;;;;;;-2.82;65.00;100796.34;6277997;22;19996;-67
2024/01/28 00:37:08;;;;;;;56.78;24.70;;;;;;;-2.57;65.41;100842.41;6277690;22;20061;-67
2024/01/28 00:39:35;;;;;;;53.95;23.77;;;;;;;-2.57;65.82;100853.75;6277964;22;20004;-66
2024/01/28 00:42:04;;;;;;;51.38;23.48;;;;;;;-2.80;65.44;100818.16;6277292;22;20015;-66
2024/01/28 00:44:30;;;;;;;55.33;23.42;;;;;;;-2.82;65.18;100809.44;6277543;22;20007;-66
2024/01/28 00:46:57;;;;;;;53.75;23.77;;;;;;;-2.57;65.56;100856.38;6277633;22;20011;-66
2024/01/28 00:49:31;;;;;;;52.15;23.15;;;;;;;-2.56;65.46;100850.25;6277349;22;20004;-64
2024/01/28 00:51:57;;;;;;;54.50;22.73;;;;;;;-2.53;64.58;100858.09;6277708;22;20079;-67
2024/01/28 00:54:26;;;;;;;50.03;22.85;;;;;;;-2.52;64.42;100858.97;6277416;22;20058;-66
2024/01/28 00:56:56;;;;;;;53.67;23.50;;;;;;;-2.54;64.09;100858.97;6277289;22;20057;-66
2024/01/28 00:59:22;;;;;;;52.55;23.55;;;;;;;-2.55;64.22;100858.97;6276781;22;20008;-66
2024/01/28 01:01:48;;;;;;;48.47;22.67;;;;;;;-2.55;64.44;100859.88;6277450;22;20022;-66
2024/01/28 01:04:14;;;;;;;49.00;22.00;;;;;;;-2.56;63.73;100863.38;6277603;22;20462;-66
2024/01/28 01:06:43;;;;;;;51.70;21.75;;;;;;;-2.50;63.66;100865.94;6277207;22;20083;-61
2024/01/28 01:09:09;;;;;;;48.38;21.00;;;;;;;-2.52;63.98;100859.81;6276845;22;20035;-64
2024/01/28 01:11:35;;;;;;;43.97;20.98;;;;;;;-2.54;64.24;100868.59;6277320;22;20109;-66
2024/01/28 01:14:01;;;;;;;45.60;20.63;;;;;;;-2.53;63.90;100860.72;6277655;22;20003;-67
2024/01/28 01:16:27;;;;;;;45.60;20.85;;;;;;;-2.85;63.49;100819.06;6277471;22;20394;-66
2024/01/28 01:18:53;;;;;;;49.05;21.02;;;;;;;-2.57;63.74;100868.63;6277348;22;20061;-68
2024/01/28 01:21:19;;;;;;;54.42;22.10;;;;;;;-2.64;63.84;100868.69;6277489;22;20087;-65
2024/01/28 01:23:45;;;;;;;49.00;21.70;;;;;;;-2.63;63.80;100870.41;6277497;22;20424;-65
2024/01/28 01:26:10;;;;;;;49.35;21.42;;;;;;;-2.61;63.54;100880.91;6277367;22;20012;-65
2024/01/28 01:28:36;;;;;;;47.45;21.17;;;;;;;-2.61;63.71;100868.66;6278138;22;20378;-66
2024/01/28 01:31:02;;;;;;;47.65;21.13;;;;;;;-2.62;63.87;100863.44;6277677;22;20446;-66
2024/01/28 01:33:28;;;;;;;49.85;22.38;;;;;;;-2.61;63.84;100862.56;6277490;22;20000;-66
2024/01/28 01:35:54;;;;;;;51.30;21.17;;;;;;;-2.54;64.00;100882.56;6277848;22;20293;-67
2024/01/28 01:38:20;;;;;;;50.45;22.33;;;;;;;-2.50;64.07;100873.78;6277935;22;19996;-65
2024/01/28 01:40:46;;;;;;;53.25;22.20;;;;;;;-2.51;64.15;100871.19;6277733;22;20018;-66
2024/01/28 01:43:15;;;;;;;49.55;20.85;;;;;;;-2.51;63.95;100864.19;6277270;22;20355;-66
2024/01/28 01:45:41;;;;;;;48.92;20.92;;;;;;;-2.50;63.61;100851.97;6277353;22;20016;-66
2024/01/28 01:48:10;;;;;;;50.75;21.27;;;;;;;-2.38;63.77;100871.94;6277333;22;20031;-67
2024/01/28 01:50:36;;;;;;;45.28;20.88;;;;;;;-2.38;63.24;100861.47;6276817;22;20282;-66
2024/01/28 01:53:04;;;;;;;47.78;20.85;;;;;;;-2.30;63.07;100870.09;6276995;22;20288;-65
2024/01/28 01:55:34;;;;;;;49.05;20.95;;;;;;;-2.33;63.40;100871.00;6276686;22;19996;-64
2024/01/28 01:58:01;;;;;;;47.83;20.63;;;;;;;-2.27;62.93;100871.84;6277072;22;20004;-65
2024/01/28 02:00:28;;;;;;;51.60;22.05;;;;;;;-2.34;62.87;100871.03;6277029;22;20099;-65
2024/01/28 02:02:53;;;;;;;43.72;20.25;;;;;;;-2.35;63.50;100867.53;6276971;22;20004;-67
2024/01/28 02:05:19;;;;;;;47.08;22.10;;;;;;;-2.34;63.24;100876.28;6276337;22;20010;-66
2024/01/28 02:07:45;;;;;;;45.55;20.88;;;;;;;-2.45;63.26;100858.88;6276874;22;19999;-66
2024/01/28 02:10:10;;;;;;;45.92;21.02;;;;;;;-2.43;63.26;100858.00;6277125;22;20015;-65
2024/01/28 02:12:36;;;;;;;50.20;22.85;;;;;;;-2.34;63.36;100886.75;6275153;22;20385;-67
2024/01/28 02:15:07;;;;;;;52.05;22.05;;;;;;;-2.31;63.32;100884.97;6276496;22;20061;-68
2024/01/28 02:17:35;;;;;;;50.83;23.33;;;;;;;-2.33;63.65;100889.34;6276763;22;20014;-66
2024/01/28 02:20:01;;;;;;;49.95;22.55;;;;;;;-2.34;63.56;100881.53;6277604;22;20023;-67
2024/01/28 02:22:31;;;;;;;45.92;21.42;;;;;;;-2.35;63.52;100896.38;6275541;22;20274;-66
2024/01/28 02:24:59;;;;;;;50.22;23.70;;;;;;;-2.29;63.77;100897.19;6277364;22;20015;-66
2024/01/28 02:27:25;;;;;;;52.42;23.10;;;;;;;-2.33;63.52;100902.47;6277247;22;20385;-68
2024/01/28 02:29:50;;;;;;;48.55;21.02;;;;;;;-2.31;63.28;100900.69;6277153;22;20014;-66
2024/01/28 02:32:18;;;;;;;47.63;21.70;;;;;;;-2.30;63.24;100904.22;6276016;22;20409;-65
2024/01/28 02:34:44;;;;;;;46.50;21.40;;;;;;;-2.32;63.12;100906.84;6276995;22;20297;-68
2024/01/28 02:37:10;;;;;;;49.22;21.25;;;;;;;-2.34;63.33;100918.25;6277082;22;20003;-67
2024/01/28 02:39:39;;;;;;;49.30;22.77;;;;;;;-2.29;63.55;100919.06;6276023;22;20000;-66
2024/01/28 02:42:06;;;;;;;46.13;21.13;;;;;;;-2.29;63.65;100919.06;6276298;22;20023;-66
2024/01/28 02:44:32;;;;;;;43.53;20.58;;;;;;;-2.28;62.97;100914.69;6276304;22;20012;-65
2024/01/28 02:46:58;;;;;;;42.75;20.67;;;;;;;-2.27;63.10;100922.53;6276124;22;20057;-67
2024/01/28 02:49:23;;;;;;;44.28;21.05;;;;;;;-2.31;62.78;100910.34;6276043;22;20081;-66
2024/01/28 02:51:53;;;;;;;49.03;22.10;;;;;;;-2.22;62.88;100920.72;6275813;22;20292;-67
2024/01/28 02:54:18;;;;;;;44.60;21.63;;;;;;;-2.18;62.91;100925.06;6276119;22;20071;-66
2024/01/28 02:56:44;;;;;;;46.75;22.65;;;;;;;-2.19;62.81;100932.97;6276390;22;20003;-66
2024/01/28 02:59:10;;;;;;;47.70;21.80;;;;;;;-2.17;62.67;100929.44;6276162;22;20293;-65
2024/01/28 03:01:46;;;;;;;45.40;22.38;;;;;;;-2.13;63.53;100924.16;6276520;22;20086;-66
2024/01/28 03:04:12;;;;;;;47.67;21.80;;;;;;;-2.11;63.06;100928.50;6276609;22;20306;-66
2024/01/28 03:06:38;;;;;;;46.25;21.48;;;;;;;-2.03;63.12;100938.91;6276087;22;20451;-67
2024/01/28 03:09:04;;;;;;;46.35;21.88;;;;;;;-2.06;62.77;100941.56;6275850;22;20006;-66
2024/01/28 03:11:30;;;;;;;45.47;21.92;;;;;;;-2.05;62.58;100948.56;6276208;22;19999;-66
2024/01/28 03:13:56;;;;;;;48.83;22.48;;;;;;;-2.10;62.35;100943.34;6274653;22;20103;-65
2024/01/28 03:16:22;;;;;;;45.03;20.92;;;;;;;-2.04;62.76;100950.31;6274154;22;19999;-66
2024/01/28 03:18:47;;;;;;;47.80;21.77;;;;;;;-2.05;62.10;100938.94;6276028;22;20066;-66
2024/01/28 03:21:13;;;;;;;43.50;20.88;;;;;;;-2.05;62.56;100944.19;6275841;22;20003;-65
2024/01/28 03:23:38;;;;;;;42.85;21.95;;;;;;;-2.19;62.81;100923.31;6275343;22;20058;-65
2024/01/28 03:26:04;;;;;;;43.63;21.00;;;;;;;-2.04;62.34;100950.31;6275768;22;20010;-66
2024/01/28 03:28:30;;;;;;;44.72;20.58;;;;;;;-2.12;62.36;100933.78;6275801;22;20070;-66
2024/01/28 03:30:55;;;;;;;48.88;21.50;;;;;;;-2.03;62.42;100952.91;6275567;22;20003;-66
2024/01/28 03:33:21;;;;;;;45.13;22.17;;;;;;;-2.05;62.53;100944.19;6276000;22;20086;-65
2024/01/28 03:35:46;;;;;;;46.58;22.35;;;;;;;-2.08;62.42;100948.59;6276065;22;19999;-66
2024/01/28 03:38:12;;;;;;;46.97;22.73;;;;;;;-2.07;62.40;100945.09;6275714;22;19999;-66
2024/01/28 03:40:37;;;;;;;43.83;21.90;;;;;;;-2.13;62.44;100951.25;6275948;22;20308;-65
2024/01/28 03:43:03;;;;;;;43.20;21.85;;;;;;;-2.14;62.51;100948.66;6276056;22;20008;-67
2024/01/28 03:45:28;;;;;;;44.83;21.58;;;;;;;-2.14;62.65;100956.53;6275613;22;20087;-66
2024/01/28 03:47:54;;;;;;;46.63;21.60;;;;;;;-2.15;62.57;100953.03;6275687;22;19996;-66
2024/01/28 03:50:21;;;;;;;45.85;21.48;;;;;;;-2.19;62.83;100957.44;6275334;22;20004;-65
2024/01/28 03:52:47;;;;;;;45.00;21.83;;;;;;;-2.23;62.70;100963.59;6275880;22;20412;-66
2024/01/28 03:55:12;;;;;;;41.97;22.35;;;;;;;-2.24;62.51;100961.84;6274875;22;20006;-67
2024/01/28 03:57:43;;;;;;;46.47;22.73;;;;;;;-2.22;62.59;100967.09;6275525;22;20808;-67
2024/01/28 04:00:11;;;;;;;49.22;22.95;;;;;;;-2.28;62.88;100973.25;6275793;22;20148;-65
2024/01/28 04:02:41;;;;;;;47.92;21.95;;;;;;;-2.25;62.92;100977.63;6275682;22;20014;-66
2024/01/28 04:05:07;;;;;;;47.97;21.52;;;;;;;-2.32;63.04;100980.28;6275979;22;20117;-65
2024/01/28 04:07:32;;;;;;;42.47;21.20;;;;;;;-2.37;62.56;100978.59;6274462;22;20467;-67
2024/01/28 04:09:58;;;;;;;44.67;21.48;;;;;;;-2.42;62.81;100976.00;6275609;22;20101;-66
2024/01/28 04:12:23;;;;;;;45.90;22.05;;;;;;;-2.64;62.94;100943.88;6275318;22;20289;-67
2024/01/28 04:14:49;;;;;;;44.05;21.60;;;;;;;-2.41;63.40;100983.00;6276125;22;20067;-64
2024/01/28 04:17:15;;;;;;;40.45;21.17;;;;;;;-2.46;62.59;100975.16;6275451;22;20004;-66
2024/01/28 04:19:41;;;;;;;45.83;21.63;;;;;;;-2.43;63.01;100986.50;6274839;22;20351;-65
2024/01/28 04:22:09;;;;;;;43.55;21.33;;;;;;;-2.50;63.22;100983.94;6275572;22;20003;-67
2024/01/28 04:24:35;;;;;;;41.20;21.20;;;;;;;-2.38;62.93;100992.59;6274742;22;20039;-67
2024/01/28 04:27:01;;;;;;;38.05;19.27;;;;;;;-2.37;62.61;100997.81;6274577;22;20004;-67
2024/01/28 04:29:26;;;;;;;42.17;20.15;;;;;;;-2.34;62.46;100994.31;6275416;22;20004;-66
2024/01/28 04:31:53;;;;;;;37.78;19.63;;;;;;;-2.26;62.17;101002.97;6275775;22;20053;-66
2024/01/28 04:34:20;;;;;;;42.28;21.17;;;;;;;-2.28;62.50;100996.88;6277264;22;20102;-66
2024/01/28 04:36:45;;;;;;;40.60;21.00;;;;;;;-2.25;62.69;101003.88;6277396;22;20031;-66
2024/01/28 04:39:12;;;;;;;42.83;22.17;;;;;;;-2.30;62.26;100990.78;6276123;22;20011;-64
2024/01/28 04:41:39;;;;;;;43.22;20.92;;;;;;;-2.48;62.03;100971.69;6277056;22;20297;-65
2024/01/28 04:44:05;;;;;;;45.17;22.70;;;;;;;-2.35;62.59;100998.69;6277390;22;20018;-63
2024/01/28 04:46:30;;;;;;;41.30;20.55;;;;;;;-2.38;62.80;100997.84;6277515;22;20004;-66
2024/01/28 04:48:57;;;;;;;43.17;21.55;;;;;;;-2.38;62.46;101003.94;6277497;22;20004;-66
2024/01/28 04:51:23;;;;;;;44.85;21.20;;;;;;;-2.37;62.76;101015.31;6277339;22;20440;-66
2024/01/28 04:53:48;;;;;;;41.35;21.33;;;;;;;-2.39;62.31;101012.69;6277092;22;20011;-66
2024/01/28 04:56:14;;;;;;;42.63;19.80;;;;;;;-2.36;62.79;101015.28;6276948;22;20031;-65
2024/01/28 04:58:40;;;;;;;42.28;21.58;;;;;;;-2.33;62.74;101019.66;6277389;22;20003;-67
2024/01/28 05:01:05;;;;;;;40.03;20.75;;;;;;;-2.33;62.70;101012.66;6276939;22;20079;-65
2024/01/28 05:03:31;;;;;;;39.33;20.30;;;;;;;-2.27;62.68;101016.97;6277597;22;20037;-66
2024/01/28 05:05:58;;;;;;;43.08;21.13;;;;;;;-2.17;62.86;101020.41;6277314;22;20006;-65
2024/01/28 05:08:24;;;;;;;42.67;22.20;;;;;;;-2.14;62.49;101025.63;6277276;22;20083;-66
2024/01/28 05:10:49;;;;;;;44.42;21.73;;;;;;;-2.10;62.32;101026.47;6277816;22;20058;-65
2024/01/28 05:13:15;;;;;;;41.92;22.27;;;;;;;-2.07;62.33;101024.66;6277775;22;20004;-67
2024/01/28 05:15:41;;;;;;;41.63;21.55;;;;;;;-2.14;62.75;101012.50;6277162;22;20018;-66
2024/01/28 05:18:07;;;;;;;42.78;22.10;;;;;;;-2.12;62.31;101020.38;6277270;22;20065;-67
2024/01/28 05:20:32;;;;;;;43.17;21.40;;;;;;;-2.01;62.37;101039.50;6277295;22;20008;-66
2024/01/28 05:22:59;;;;;;;44.63;22.58;;;;;;;-1.99;62.07;101036.88;6277603;22;20105;-67
2024/01/28 05:25:26;;;;;;;38.63;21.88;;;;;;;-2.01;62.58;101044.75;6277076;22;20061;-64
2024/01/28 05:27:52;;;;;;;38.33;20.77;;;;;;;-2.01;62.48;101044.75;6277806;22;20004;-66
2024/01/28 05:30:17;;;;;;;42.08;22.30;;;;;;;-2.32;62.55;101003.88;6277224;22;20019;-66
2024/01/28 05:32:43;;;;;;;47.50;23.15;;;;;;;-2.09;62.30;101036.09;6277205;22;20007;-66
2024/01/28 05:35:09;;;;;;;45.47;22.85;;;;;;;-2.07;62.55;101050.91;6276810;22;20490;-65
2024/01/28 05:37:36;;;;;;;45.88;22.98;;;;;;;-2.10;62.32;101050.09;6277216;22;20004;-66
2024/01/28 05:40:02;;;;;;;41.58;21.63;;;;;;;-2.08;62.58;101053.56;6277174;22;20387;-66
2024/01/28 05:42:30;;;;;;;45.40;22.67;;;;;;;-2.06;62.56;101050.03;6276891;22;20007;-66
2024/01/28 05:44:55;;;;;;;49.00;22.52;;;;;;;-2.02;62.52;101059.63;6275396;22;20016;-62
2024/01/28 05:47:21;;;;;;;43.33;22.17;;;;;;;-2.03;62.54;101059.63;6277344;22;20030;-66
2024/01/28 05:49:46;;;;;;;47.03;23.00;;;;;;;-2.05;62.62;101043.03;6276681;22;20113;-65
2024/01/28 05:52:12;;;;;;;45.90;23.98;;;;;;;-1.94;61.99;101062.16;6276409;22;20007;-66
2024/01/28 05:54:41;;;;;;;46.35;24.02;;;;;;;-1.97;62.23;101056.97;6276790;22;19996;-65
2024/01/28 05:57:07;;;;;;;45.50;23.17;;;;;;;-1.90;61.88;101073.53;6275921;22;20113;-65
2024/01/28 05:59:33;;;;;;;44.75;23.23;;;;;;;-1.94;62.06;101077.06;6276478;22;19999;-66
2024/01/28 06:01:58;;;;;;;54.25;27.38;;;;;;;-1.99;61.62;101074.47;6276956;22;20023;-65
2024/01/28 06:04:24;;;;;;;47.00;24.30;;;;;;;-1.93;62.08;101087.56;6276822;22;20034;-67
2024/01/28 06:06:49;;;;;;;49.47;23.40;;;;;;;-2.23;62.35;101021.31;6276855;22;20080;-66
2024/01/28 06:09:15;;;;;;;45.22;22.55;;;;;;;-1.90;62.03;101081.41;6276569;22;20113;-66
2024/01/28 06:11:43;;;;;;;45.40;23.60;;;;;;;-1.98;62.45;101063.09;6276920;22;20011;-65
2024/01/28 06:14:10;;;;;;;44.15;22.95;;;;;;;-2.18;62.18;101030.00;6276447;22;20263;-66
2024/01/28 06:16:35;;;;;;;45.45;21.98;;;;;;;-1.86;62.38;101079.63;6276345;22;20014;-66
2024/01/28 06:19:01;;;;;;;45.63;22.88;;;;;;;-1.90;61.98;101071.78;6276836;22;20007;-66
2024/01/28 06:21:26;;;;;;;41.97;23.40;;;;;;;-1.78;62.25;101089.19;6277014;22;19996;-66
2024/01/28 06:23:52;;;;;;;44.88;22.02;;;;;;;-1.71;62.14;101086.50;6276803;22;20094;-66
2024/01/28 06:26:18;;;;;;;44.95;22.23;;;;;;;-1.70;62.31;101085.59;6276525;22;20000;-65
2024/01/28 06:28:46;;;;;;;47.80;22.48;;;;;;;-1.63;62.31;101087.28;6274890;22;19996;-64
2024/01/28 06:31:13;;;;;;;49.25;23.48;;;;;;;-1.94;61.64;101035.06;6276114;22;20011;-65
2024/01/28 06:33:39;;;;;;;46.75;24.38;;;;;;;-1.59;61.44;101081.09;6275497;22;20030;-54
2024/01/28 06:36:05;;;;;;;44.95;22.92;;;;;;;-1.59;61.99;101078.47;6275494;22;20408;-53
2024/01/28 06:38:30;;;;;;;41.95;22.38;;;;;;;-1.49;61.69;101090.66;6275989;22;20015;-50
2024/01/28 06:40:59;;;;;;;47.45;23.35;;;;;;;-1.45;61.88;101091.47;6276386;22;20008;-56
2024/01/28 06:43:25;;;;;;;45.15;23.25;;;;;;;-1.42;60.92;101101.09;6276467;22;20026;-65
2024/01/28 06:45:52;;;;;;;48.72;23.95;;;;;;;-1.42;61.62;101107.22;6275823;22;20347;-64
2024/01/28 06:48:17;;;;;;;42.58;22.60;;;;;;;-1.37;61.02;101117.66;6273563;22;20065;-64
2024/01/28 06:50:44;;;;;;;47.88;22.73;;;;;;;-1.38;60.95;101114.19;6275177;22;20008;-64
2024/01/28 06:53:10;;;;;;;47.35;23.88;;;;;;;-1.42;60.78;101107.22;6275956;22;20014;-64
2024/01/28 06:55:35;;;;;;;46.40;22.95;;;;;;;-1.40;60.68;101107.19;6276013;22;19999;-62
2024/01/28 06:58:01;;;;;;;48.80;23.30;;;;;;;-1.47;60.67;101107.28;6275353;22;20034;-66
2024/01/28 07:00:27;;;;;;;47.50;23.95;;;;;;;-1.46;61.10;101121.25;6276194;22;20077;-65
2024/01/28 07:02:53;;;;;;;47.38;23.45;;;;;;;-1.47;61.28;101119.50;6275897;22;20113;-63
2024/01/28 07:05:20;;;;;;;49.55;25.38;;;;;;;-1.52;61.18;101109.06;6275913;22;20069;-64
2024/01/28 07:07:46;;;;;;;55.50;26.17;;;;;;;-1.42;61.37;101123.00;6276085;22;20081;-64
2024/01/28 07:10:12;;;;;;;54.08;27.17;;;;;;;-1.34;61.05;101130.78;6275420;22;20388;-64
2024/01/28 07:12:39;;;;;;;54.53;27.38;;;;;;;-1.37;61.28;101121.19;6275633;22;20074;-64
2024/01/28 07:15:05;;;;;;;52.50;27.05;;;;;;;-1.24;61.24;101137.69;6275815;22;20305;-64
2024/01/28 07:17:31;;;;;;;52.42;24.88;;;;;;;-1.18;61.14;101142.03;6276355;22;20446;-63
2024/01/28 07:19:57;;;;;;;49.05;26.10;;;;;;;-1.14;60.80;101130.59;6276130;22;20004;-62
2024/01/28 07:22:23;;;;;;;53.85;25.65;;;;;;;-1.07;60.84;101134.03;6275099;22;20008;-63
2024/01/28 07:24:49;;;;;;;50.25;26.50;;;;;;;-0.99;60.83;101133.91;6275915;22;20006;-65
2024/01/28 07:27:14;;;;;;;49.15;23.95;;;;;;;-0.98;60.00;101126.00;6275960;22;20000;-64
2024/01/28 07:29:40;;;;;;;46.80;24.00;;;;;;;-0.95;59.98;101133.00;6275348;22;20014;-66
2024/01/28 07:32:06;;;;;;;46.28;24.63;;;;;;;-0.93;59.85;101141.75;6275482;22;19999;-64
2024/01/28 07:34:31;;;;;;;49.05;23.42;;;;;;;-0.89;60.06;101139.03;6275428;22;20304;-64
2024/01/28 07:36:57;;;;;;;49.55;22.77;;;;;;;-0.77;60.18;101142.44;6276237;22;20397;-63
2024/01/28 07:39:26;;;;;;;46.38;22.55;;;;;;;-0.78;60.11;101131.03;6275639;22;20011;-65
2024/01/28 07:41:51;;;;;;;43.85;22.38;;;;;;;-0.68;60.17;101141.44;6275375;22;20293;-64
2024/01/28 07:44:18;;;;;;;45.15;22.55;;;;;;;-0.88;60.00;101103.97;6275332;22;20008;-64
2024/01/28 07:46:43;;;;;;;45.95;21.60;;;;;;;-0.59;59.85;101157.97;6275554;22;20015;-65
2024/01/28 07:49:09;;;;;;;45.60;22.40;;;;;;;-0.67;59.78;101145.81;6275430;22;20011;-66
2024/01/28 07:51:35;;;;;;;43.85;20.90;;;;;;;-0.83;59.44;101132.00;6275400;22;20003;-63
2024/01/28 07:54:00;;;;;;;44.95;21.42;;;;;;;-0.68;60.06;101173.00;6275754;22;20037;-65
2024/01/28 07:56:26;;;;;;;40.53;21.70;;;;;;;-0.99;60.09;101115.50;6274175;22;20011;-65
2024/01/28 07:58:52;;;;;;;37.60;19.98;;;;;;;-0.73;59.67;101166.00;6274132;22;20045;-64
2024/01/28 08:01:17;;;;;;;37.42;20.08;;;;;;;-0.64;60.42;101162.41;6276181;22;19995;-64
2024/01/28 08:03:43;;;;;;;37.47;19.25;;;;;;;-0.64;59.80;101169.44;6276032;22;20000;-64
2024/01/28 08:06:09;;;;;;;38.85;20.42;;;;;;;-0.65;60.06;101172.97;6276380;22;20070;-66
2024/01/28 08:08:35;;;;;;;36.17;19.38;;;;;;;-0.68;59.79;101162.50;6276005;22;20012;-64
2024/01/28 08:11:01;;;;;;;39.22;19.38;;;;;;;-0.63;59.95;101174.66;6278287;22;20030;-64
2024/01/28 08:13:27;;;;;;;35.92;19.05;;;;;;;-0.64;59.92;101187.84;6278287;22;20000;-65
2024/01/28 08:15:57;;;;;;;36.33;19.40;;;;;;;-0.65;59.92;101170.34;6278125;22;20057;-65
2024/01/28 08:18:22;;;;;;;32.25;18.50;;;;;;;-0.66;60.05;101177.34;6277634;22;20004;-63
2024/01/28 08:20:48;;;;;;;35.75;19.35;;;;;;;-0.68;59.84;101175.63;6277050;22;20010;-65
2024/01/28 08:23:13;;;;;;;36.95;19.30;;;;;;;-0.76;60.15;101176.56;6277427;22;19999;-66
2024/01/28 08:25:39;;;;;;;35.80;18.95;;;;;;;-0.70;60.71;101182.69;6277659;22;20010;-65
2024/01/28 08:28:05;;;;;;;34.45;19.13;;;;;;;-0.68;60.13;101170.38;6276787;22;20003;-63
2024/01/28 08:30:30;;;;;;;31.50;18.42;;;;;;;-0.70;60.37;101180.06;6275788;22;20039;-63
2024/01/28 08:32:56;;;;;;;36.63;19.23;;;;;;;-0.73;59.93;101160.75;6277050;22;20007;-65
2024/01/28 08:35:21;;;;;;;34.38;18.90;;;;;;;-0.65;60.09;101162.44;6277509;22;19999;-65
2024/01/28 08:37:47;;;;;;;37.72;20.20;;;;;;;-0.56;60.08;101172.84;6277512;22;20042;-65
2024/01/28 08:40:14;;;;;;;34.35;19.20;;;;;;;-0.57;59.62;101160.56;6277041;22;20101;-64
2024/01/28 08:42:40;;;;;;;34.80;18.98;;;;;;;-0.45;59.83;101181.47;6276257;22;20304;-65
2024/01/28 08:45:06;;;;;;;34.40;19.15;;;;;;;-0.67;59.34;101132.66;6277743;22;20011;-65
2024/01/28 08:47:32;;;;;;;33.63;18.25;;;;;;;-0.40;59.42;101172.66;6278119;22;20050;-64
2024/01/28 08:49:58;;;;;;;32.20;19.13;;;;;;;-0.34;58.97;101183.97;6277627;22;20388;-65
2024/01/28 08:52:23;;;;;;;37.72;19.55;;;;;;;-0.47;58.68;101182.38;6277426;22;20004;-65
2024/01/28 08:54:49;;;;;;;33.80;19.25;;;;;;;-0.46;59.20;101194.66;6277594;22;20033;-66
2024/01/28 08:57:15;;;;;;;32.53;18.98;;;;;;;-0.50;60.01;101198.22;6277222;22;20030;-65
2024/01/28 08:59:40;;;;;;;34.80;18.90;;;;;;;-0.56;59.88;101193.88;6276504;22;20004;-63
2024/01/28 09:02:06;;;;;;;34.58;18.23;;;;;;;-0.51;59.64;101201.72;6277503;22;20411;-65
2024/01/28 09:04:31;;;;;;;37.10;20.15;;;;;;;-0.56;59.29;101193.03;6277785;22;20005;-64
2024/01/28 09:06:57;;;;;;;35.33;18.45;;;;;;;-0.64;59.60;101193.13;6277165;22;20301;-65
2024/01/28 09:09:22;;;;;;;35.28;18.48;;;;;;;-0.59;59.46;101204.44;6277121;22;20023;-65
2024/01/28 09:11:48;;;;;;;35.00;19.00;;;;;;;-0.61;59.69;101200.97;6277509;22;20008;-66
2024/01/28 09:14:13;;;;;;;37.80;19.45;;;;;;;-0.61;59.67;101188.66;6277241;22;19995;-66
2024/01/28 09:16:39;;;;;;;34.60;18.85;;;;;;;-0.61;59.73;101196.56;6277240;22;20042;-65
2024/01/28 09:19:05;;;;;;;36.03;19.23;;;;;;;-0.56;59.60;101199.16;6277586;22;20329;-64
2024/01/28 09:21:31;;;;;;;35.97;19.50;;;;;;;-0.52;59.04;101211.38;6277276;22;20101;-65
2024/01/28 09:23:57;;;;;;;32.22;19.00;;;;;;;-0.50;59.44;101204.31;6277259;22;20007;-64
2024/01/28 09:26:23;;;;;;;30.92;19.20;;;;;;;-0.42;59.14;101216.53;6276979;22;20442;-64
2024/01/28 09:28:49;;;;;;;35.97;19.90;;;;;;;-0.50;58.97;101209.59;6277598;22;20039;-64
2024/01/28 09:31:14;;;;;;;33.30;19.25;;;;;;;-0.51;59.41;101222.78;6277187;22;20008;-64
2024/01/28 09:33:40;;;;;;;33.80;18.63;;;;;;;-0.56;59.13;101222.81;6277083;22;20008;-63
2024/01/28 09:36:06;;;;;;;35.08;18.70;;;;;;;-0.66;59.41;101216.78;6277221;22;19995;-64
2024/01/28 09:38:32;;;;;;;35.53;19.73;;;;;;;-0.90;60.03;101183.78;6277526;22;20007;-64
2024/01/28 09:41:23;;;;;;;31.58;18.20;;;;;;;-0.69;60.08;101210.72;6277494;22;20015;-64
2024/01/28 09:43:49;;;;;;;32.45;18.65;;;;;;;-0.99;59.36;101173.34;6277263;22;20011;-64
2024/01/28 09:46:16;;;;;;;32.88;18.40;;;;;;;-0.66;59.74;101213.31;6277289;22;20011;-65
2024/01/28 09:48:46;;;;;;;33.40;18.08;;;;;;;-0.57;59.54;101215.81;6276915;22;20036;-65
2024/01/28 09:51:13;;;;;;;32.53;17.80;;;;;;;-0.57;59.40;101218.44;6276993;22;20016;-64
2024/01/28 09:53:40;;;;;;;27.60;17.20;;;;;;;-0.51;59.24;101217.53;6276900;22;20000;-64
2024/01/28 09:56:10;;;;;;;33.40;18.13;;;;;;;-0.86;58.94;101159.19;6276687;22;20419;-66
2024/01/28 09:58:37;;;;;;;35.45;17.45;;;;;;;-0.55;59.13;101211.41;6276548;22;20357;-64
2024/01/28 10:01:03;;;;;;;37.03;16.90;;;;;;;-0.52;59.21;101211.38;6277413;22;20019;-65
2024/01/28 10:03:31;;;;;;;32.78;18.10;;;;;;;-0.53;59.58;101212.25;6276716;22;19996;-64
2024/01/28 10:05:56;;;;;;;32.90;18.00;;;;;;;-0.47;59.51;101214.84;6276474;22;20006;-65
2024/01/28 10:08:25;;;;;;;31.63;17.13;;;;;;;-0.42;58.82;101219.16;6276643;22;20354;-64
2024/01/28 10:10:53;;;;;;;28.17;16.83;;;;;;;-0.46;58.77;101199.91;6276923;22;20149;-65
2024/01/28 10:13:19;;;;;;;31.25;17.17;;;;;;;-0.41;59.01;101216.50;6276836;22;20057;-64
2024/01/28 10:15:56;;;;;;;33.15;18.00;;;;;;;-0.33;58.58;101213.78;6276584;22;20392;-63
2024/01/28 10:18:23;;;;;;;32.40;18.05;;;;;;;-0.35;58.84;101212.94;6276480;22;20007;-64
2024/01/28 10:20:49;;;;;;;32.10;18.30;;;;;;;-0.37;58.34;101220.81;6276921;22;20038;-65
2024/01/28 10:23:15;;;;;;;29.70;17.98;;;;;;;-0.37;58.92;101227.88;6276323;22;19996;-63
2024/01/28 10:25:41;;;;;;;35.80;18.90;;;;;;;-0.42;58.33;101224.44;6276368;22;20018;-64
2024/01/28 10:28:08;;;;;;;31.75;18.75;;;;;;;-0.46;59.09;101216.56;6276668;22;20267;-65
2024/01/28 10:30:33;;;;;;;34.20;19.08;;;;;;;-0.38;58.86;101226.97;6276245;22;20231;-63
2024/01/28 10:32:59;;;;;;;35.50;19.42;;;;;;;-0.42;59.14;101220.03;6276524;22;20063;-64
2024/01/28 10:35:25;;;;;;;35.38;18.67;;;;;;;-0.30;58.92;101237.41;6275737;22;20008;-66
2024/01/28 10:37:55;;;;;;;32.92;18.80;;;;;;;-0.30;58.63;101234.78;6276459;22;19999;-65
2024/01/28 10:40:23;;;;;;;33.13;18.75;;;;;;;-0.30;58.67;101227.78;6276941;22;20003;-64
2024/01/28 10:42:52;;;;;;;32.35;18.45;;;;;;;-0.63;58.00;101169.41;6276721;22;20079;-65
2024/01/28 10:45:19;;;;;;;34.97;18.83;;;;;;;-0.31;58.62;101214.63;6276366;22;20408;-64
2024/01/28 10:47:51;;;;;;;39.00;18.80;;;;;;;-0.27;58.36;101226.84;6276659;22;20004;-65
2024/01/28 10:50:18;;;;;;;31.75;18.83;;;;;;;-0.31;57.91;101220.78;6276597;22;20038;-64
2024/01/28 10:52:46;;;;;;;35.80;19.75;;;;;;;-0.37;59.02;101209.44;6276117;22;20000;-65
2024/01/28 10:55:12;;;;;;;33.78;19.30;;;;;;;-0.23;58.40;101225.94;6276557;22;20304;-64
2024/01/28 10:57:39;;;;;;;37.03;19.40;;;;;;;-0.16;58.57;101226.72;6276947;22;20008;-64
2024/01/28 11:00:06;;;;;;;32.00;18.60;;;;;;;-0.42;58.38;101179.69;6276198;22;20026;-63
2024/01/28 11:02:35;;;;;;;31.77;18.65;;;;;;;-0.12;58.58;101235.44;6275783;22;20385;-64
2024/01/28 11:05:02;;;;;;;38.60;19.90;;;;;;;-0.16;57.93;101232.84;6276413;22;20785;-64